Tulum, ROO, Mexico
Current Conditions -  °F | °C
As of 10:41 PM on Tuesday 25 Nov 2014 (Local Time) from MMCZ Reporting Station
Moderate Rain Moderate Rain  
Wind Chill: 72°   Ceiling: 1200
Heat Index: 72°   Visibility: 5mi
Dew Point: 72°   Wind: 8mph
Humidity: 100%   Direction: 350°N
Pressure: 29.98"   Gusts: NA
Location:  20.22°N, 87.47°W
Report Text: MMCZ 260441Z 35007KT 5SM RA BKN012 22/22 A2998 RMK 60585 8/400 RAB27 RTS
Loading
Personal Weather Stations






























Interactive Weather Map New forecast layout! Learn more

10-Day Weather Forecast

Advertisements
Track Severe Weather on mobile